createdAt,value
2018-09-30T00:00:57.889Z,58.40
2018-09-30T00:03:25.352Z,56.90
2018-09-30T00:05:52.777Z,52.50
2018-09-30T00:08:20.241Z,53.90
2018-09-30T00:10:47.807Z,54.70
2018-09-30T00:13:15.310Z,54.20
2018-09-30T00:15:42.851Z,48.60
2018-09-30T00:18:10.294Z,48.90
2018-09-30T00:20:37.802Z,52.10
2018-09-30T00:23:05.362Z,50.30
2018-09-30T00:25:38.651Z,53.10
2018-09-30T00:28:06.171Z,53.90
2018-09-30T00:30:33.700Z,55.10
2018-09-30T00:33:01.151Z,53.40
2018-09-30T00:35:28.601Z,53.70
2018-09-30T00:37:56.098Z,49.70
2018-09-30T00:40:23.525Z,49.90
2018-09-30T00:42:51.012Z,52.10
2018-09-30T00:45:18.429Z,53.20
2018-09-30T00:47:45.886Z,61.40
2018-09-30T00:50:13.304Z,56.50
2018-09-30T00:52:40.726Z,55.90
2018-09-30T00:55:08.175Z,52.30
2018-09-30T00:57:35.645Z,49.30
2018-09-30T01:00:03.271Z,50.60
2018-09-30T01:02:30.714Z,51.50
2018-09-30T01:04:58.188Z,54.30
2018-09-30T01:07:25.654Z,54.00
2018-09-30T01:09:53.126Z,54.20
2018-09-30T01:12:20.574Z,58.70
2018-09-30T01:14:48.039Z,53.40
2018-09-30T01:17:15.506Z,54.70
2018-09-30T01:19:42.983Z,52.90
2018-09-30T01:22:10.405Z,63.70
2018-09-30T01:24:37.862Z,55.40
2018-09-30T01:27:05.285Z,56.10
2018-09-30T01:29:32.742Z,53.10
2018-09-30T01:32:00.194Z,52.90
2018-09-30T01:34:27.867Z,57.30
2018-09-30T01:36:55.305Z,63.20
2018-09-30T01:39:22.802Z,54.60
2018-09-30T01:41:50.295Z,54.70
2018-09-30T01:44:17.770Z,62.90
2018-09-30T01:46:45.269Z,63.20
2018-09-30T01:49:12.849Z,61.10
2018-09-30T01:51:41.094Z,56.10
2018-09-30T01:54:08.848Z,57.60
2018-09-30T01:56:36.823Z,56.10
2018-09-30T01:59:04.544Z,52.40
2018-09-30T02:01:32.290Z,52.40
2018-09-30T02:04:00.079Z,52.80
2018-09-30T02:06:27.858Z,58.20
2018-09-30T02:08:55.934Z,53.40
2018-09-30T02:11:23.721Z,52.50
2018-09-30T02:13:51.439Z,53.80
2018-09-30T02:16:19.215Z,55.90
2018-09-30T02:18:47.127Z,60.50
2018-09-30T02:21:15.102Z,57.50
2018-09-30T02:23:42.986Z,53.80
2018-09-30T02:26:10.707Z,56.20
2018-09-30T02:28:38.446Z,54.30
2018-09-30T02:31:06.216Z,54.40
2018-09-30T02:33:34.365Z,59.50
2018-09-30T02:36:02.357Z,58.20
2018-09-30T02:38:30.162Z,58.30
2018-09-30T02:40:57.865Z,61.80
2018-09-30T02:43:27.208Z,63.60
2018-09-30T02:45:55.069Z,55.60
2018-09-30T02:48:22.899Z,53.50
2018-09-30T02:50:50.683Z,61.30
2018-09-30T02:53:18.520Z,56.50
2018-09-30T02:55:46.695Z,54.10
2018-09-30T02:58:14.556Z,54.70
2018-09-30T03:00:42.263Z,55.60
2018-09-30T03:03:09.937Z,58.80
2018-09-30T03:05:38.539Z,55.30
2018-09-30T03:08:12.132Z,61.80
2018-09-30T03:10:39.831Z,62.30
2018-09-30T03:13:07.555Z,56.60
2018-09-30T03:15:35.332Z,54.80
2018-09-30T03:18:03.198Z,56.00
2018-09-30T03:20:31.142Z,55.50
2018-09-30T03:22:58.868Z,62.60
2018-09-30T03:25:26.718Z,53.90
2018-09-30T03:27:54.338Z,53.90
2018-09-30T03:30:22.136Z,55.20
2018-09-30T03:32:49.702Z,56.70
2018-09-30T03:35:17.193Z,56.10
2018-09-30T03:37:44.758Z,65.30
2018-09-30T03:40:12.377Z,61.20
2018-09-30T03:42:39.828Z,57.30
2018-09-30T03:45:07.519Z,57.70
2018-09-30T03:47:35.001Z,66.90
2018-09-30T03:50:02.614Z,65.80
2018-09-30T03:52:30.171Z,57.40
2018-09-30T03:54:57.714Z,54.50
2018-09-30T03:57:25.150Z,60.50
2018-09-30T03:59:52.557Z,65.80
2018-09-30T04:02:20.068Z,57.10
2018-09-30T04:04:47.503Z,56.20
2018-09-30T04:07:14.927Z,62.70
2018-09-30T04:09:42.491Z,57.50
2018-09-30T04:12:09.893Z,59.20
2018-09-30T04:14:37.442Z,55.20
2018-09-30T04:17:05.287Z,61.00
2018-09-30T04:19:32.681Z,61.60
2018-09-30T04:22:00.183Z,56.60
2018-09-30T04:24:27.681Z,56.80
2018-09-30T04:26:55.214Z,60.90
2018-09-30T04:29:22.747Z,56.30
2018-09-30T04:31:50.159Z,61.20
2018-09-30T04:34:17.706Z,61.00
2018-09-30T04:36:45.123Z,65.40
2018-09-30T04:39:12.556Z,66.50
2018-09-30T04:41:40.111Z,63.50
2018-09-30T04:44:07.722Z,56.20
2018-09-30T04:46:35.157Z,63.30
2018-09-30T04:49:02.698Z,65.90
2018-09-30T04:51:30.238Z,68.60
2018-09-30T04:53:57.784Z,56.90
2018-09-30T04:56:25.331Z,61.70
2018-09-30T04:58:52.810Z,59.20
2018-09-30T05:01:20.297Z,66.50
2018-09-30T05:03:47.753Z,70.60
2018-09-30T05:06:15.227Z,57.10
2018-09-30T05:08:42.687Z,58.80
2018-09-30T05:11:10.247Z,57.20
2018-09-30T05:13:37.701Z,68.80
2018-09-30T05:16:05.201Z,58.90
2018-09-30T05:18:32.618Z,59.50
2018-09-30T05:21:00.095Z,57.20
2018-09-30T05:23:27.708Z,57.40
2018-09-30T05:25:55.246Z,55.60
2018-09-30T05:28:22.756Z,54.80
2018-09-30T05:30:50.255Z,58.40
2018-09-30T05:33:17.760Z,55.40
2018-09-30T05:35:45.256Z,56.00
2018-09-30T05:38:12.702Z,57.70
2018-09-30T05:40:40.222Z,54.60
2018-09-30T05:43:07.718Z,62.10
2018-09-30T05:45:35.293Z,57.00
2018-09-30T05:48:02.814Z,60.70
2018-09-30T05:50:30.241Z,58.10
2018-09-30T05:52:57.758Z,55.40
2018-09-30T05:55:25.323Z,62.60
2018-09-30T05:57:52.765Z,58.30
2018-09-30T06:00:20.218Z,56.00
2018-09-30T06:02:47.804Z,56.90
2018-09-30T06:05:15.354Z,54.60
2018-09-30T06:07:42.998Z,56.80
2018-09-30T06:10:10.457Z,54.10
2018-09-30T06:12:37.999Z,55.80
2018-09-30T06:15:05.526Z,58.60
2018-09-30T06:17:33.045Z,56.50
2018-09-30T06:20:00.616Z,54.10
2018-09-30T06:22:28.196Z,53.40
2018-09-30T06:24:55.804Z,53.30
2018-09-30T06:27:23.405Z,52.30
2018-09-30T06:29:50.923Z,52.10
2018-09-30T06:32:18.400Z,52.20
2018-09-30T06:34:45.907Z,52.30
2018-09-30T06:37:13.403Z,51.70
2018-09-30T06:39:40.951Z,55.80
2018-09-30T06:42:08.426Z,52.30
2018-09-30T06:44:35.989Z,53.60
2018-09-30T06:47:03.798Z,53.10
2018-09-30T06:49:31.348Z,53.00
2018-09-30T06:52:01.151Z,53.00
2018-09-30T06:54:28.919Z,52.70
2018-09-30T06:56:56.383Z,53.00
2018-09-30T06:59:23.850Z,49.60
2018-09-30T07:01:51.316Z,50.40
2018-09-30T07:04:18.853Z,48.60
2018-09-30T07:06:46.418Z,48.90
2018-09-30T07:09:13.937Z,48.10
2018-09-30T07:11:41.513Z,47.00
2018-09-30T07:14:09.195Z,46.00
2018-09-30T07:16:36.753Z,46.00
2018-09-30T07:19:04.294Z,46.60
2018-09-30T07:21:31.740Z,46.50
2018-09-30T07:23:59.286Z,45.90
2018-09-30T07:26:26.869Z,45.40
2018-09-30T07:28:54.314Z,45.60
2018-09-30T07:31:21.898Z,44.60
2018-09-30T07:33:49.402Z,43.80
2018-09-30T07:36:16.865Z,43.10
2018-09-30T07:38:44.558Z,42.90
2018-09-30T07:41:12.098Z,42.70
2018-09-30T07:43:39.564Z,43.60
2018-09-30T07:46:07.058Z,44.20
2018-09-30T07:48:34.541Z,44.50
2018-09-30T07:51:02.160Z,45.80
2018-09-30T07:53:29.613Z,46.50
2018-09-30T07:55:57.145Z,46.60
2018-09-30T07:58:24.819Z,47.80
2018-09-30T08:00:52.286Z,48.40
2018-09-30T08:03:19.722Z,48.10
2018-09-30T08:05:47.306Z,47.80
2018-09-30T08:08:15.225Z,47.10
2018-09-30T08:10:42.659Z,46.10
2018-09-30T08:13:10.271Z,46.50
2018-09-30T08:15:37.790Z,47.60
2018-09-30T08:18:05.366Z,46.80
2018-09-30T08:20:33.416Z,47.50
2018-09-30T08:23:01.115Z,47.50
2018-09-30T08:25:29.444Z,46.80
2018-09-30T08:27:57.401Z,44.70
2018-09-30T08:30:25.114Z,40.90
2018-09-30T08:32:52.844Z,39.10
2018-09-30T08:35:20.784Z,38.00
2018-09-30T08:38:52.862Z,38.30
2018-09-30T08:41:20.711Z,35.70
2018-09-30T08:43:48.164Z,34.50
2018-09-30T08:46:16.314Z,34.50
2018-09-30T08:48:44.043Z,36.40
2018-09-30T08:51:11.765Z,34.90
2018-09-30T08:53:39.556Z,33.30
2018-09-30T08:56:07.054Z,32.40
2018-09-30T08:58:34.622Z,31.70
2018-09-30T09:01:02.366Z,30.20
2018-09-30T09:03:29.881Z,32.20
2018-09-30T09:05:57.592Z,33.50
2018-09-30T09:08:25.305Z,34.40
2018-09-30T09:10:52.835Z,33.30
2018-09-30T09:13:20.329Z,34.30
2018-09-30T09:17:24.444Z,36.40
2018-09-30T09:19:51.906Z,42.10
2018-09-30T09:22:19.492Z,44.10
2018-09-30T09:24:47.178Z,39.30
2018-09-30T09:27:14.759Z,41.30
2018-09-30T09:29:42.238Z,40.70
2018-09-30T09:32:09.749Z,40.40
2018-09-30T09:34:37.223Z,42.60
2018-09-30T09:37:04.718Z,42.40
2018-09-30T09:39:32.204Z,41.80
2018-09-30T09:41:59.687Z,44.60
2018-09-30T09:44:27.159Z,41.70
2018-09-30T09:46:54.719Z,41.50
2018-09-30T09:49:22.229Z,41.50
2018-09-30T09:51:49.677Z,41.50
2018-09-30T09:54:17.466Z,41.30
2018-09-30T09:56:44.947Z,42.80
2018-09-30T09:59:12.676Z,47.00
2018-09-30T10:01:40.154Z,45.40
2018-09-30T10:04:07.651Z,46.30
2018-09-30T10:06:35.331Z,47.40
2018-09-30T10:09:03.787Z,47.10
2018-09-30T10:11:31.238Z,46.80
2018-09-30T10:13:58.843Z,49.60
2018-09-30T10:16:26.342Z,49.60
2018-09-30T10:18:53.814Z,49.30
2018-09-30T10:21:21.287Z,48.80
2018-09-30T10:23:48.883Z,48.70
2018-09-30T10:26:16.331Z,48.90
2018-09-30T10:28:43.846Z,45.50
2018-09-30T10:31:11.413Z,41.20
2018-09-30T10:33:38.905Z,43.30
2018-09-30T10:36:06.429Z,38.20
2018-09-30T10:38:34.007Z,38.10
2018-09-30T10:41:01.468Z,41.90
2018-09-30T10:43:28.985Z,42.50
2018-09-30T10:45:56.435Z,44.00
2018-09-30T10:48:23.912Z,45.40
2018-09-30T10:50:51.426Z,43.70
2018-09-30T10:53:18.944Z,42.90
2018-09-30T10:55:46.467Z,40.80
2018-09-30T10:58:13.962Z,43.70
2018-09-30T11:00:41.497Z,43.40
2018-09-30T11:03:09.070Z,37.10
2018-09-30T11:05:36.626Z,33.20
2018-09-30T11:08:04.202Z,31.10
2018-09-30T11:10:31.676Z,28.30
2018-09-30T11:12:59.197Z,27.30
2018-09-30T11:15:26.800Z,25.70
2018-09-30T11:17:54.270Z,28.00
2018-09-30T11:20:23.520Z,27.70
2018-09-30T11:22:51.133Z,27.30
2018-09-30T11:25:18.766Z,27.60
2018-09-30T11:27:46.345Z,25.90
2018-09-30T11:30:13.914Z,25.10
2018-09-30T11:32:41.538Z,26.90
2018-09-30T11:35:09.021Z,25.80
2018-09-30T11:37:36.506Z,24.90
2018-09-30T11:40:04.469Z,26.70
2018-09-30T11:42:32.041Z,27.50
2018-09-30T11:44:59.612Z,27.30
2018-09-30T11:47:27.186Z,29.60
2018-09-30T11:49:54.754Z,30.90
2018-09-30T11:52:22.266Z,32.80
2018-09-30T11:54:49.770Z,34.10
2018-09-30T11:57:17.277Z,40.50
2018-09-30T11:59:44.728Z,39.80
2018-09-30T12:02:12.420Z,38.00
2018-09-30T12:04:39.926Z,41.50
2018-09-30T12:07:07.433Z,41.40
2018-09-30T12:09:34.957Z,41.80
2018-09-30T12:12:02.443Z,43.20
2018-09-30T12:14:29.909Z,42.20
2018-09-30T12:16:57.424Z,41.90
2018-09-30T12:19:24.958Z,40.70
2018-09-30T12:21:52.396Z,43.00
2018-09-30T12:24:19.861Z,42.30
2018-09-30T12:26:47.290Z,40.00
2018-09-30T12:29:14.779Z,39.60
2018-09-30T12:31:42.253Z,42.20
2018-09-30T12:34:09.733Z,39.50
2018-09-30T12:36:37.209Z,35.10
2018-09-30T12:39:06.442Z,39.10
2018-09-30T12:41:33.865Z,36.10
2018-09-30T12:44:01.411Z,36.00
2018-09-30T12:46:28.906Z,36.30
2018-09-30T12:48:56.354Z,41.50
2018-09-30T12:51:23.857Z,43.60
2018-09-30T12:53:51.322Z,44.20
2018-09-30T12:56:18.854Z,43.50
2018-09-30T12:58:46.394Z,43.10
2018-09-30T13:01:13.892Z,38.90
2018-09-30T13:03:41.410Z,43.30
2018-09-30T13:06:08.889Z,41.50
2018-09-30T13:08:36.448Z,40.90
2018-09-30T13:11:04.006Z,42.30
2018-09-30T13:13:31.471Z,43.10
2018-09-30T13:15:58.989Z,44.50
2018-09-30T13:18:26.672Z,43.90
2018-09-30T13:20:54.231Z,37.50
2018-09-30T13:23:21.806Z,33.40
2018-09-30T13:25:49.417Z,31.20
2018-09-30T13:28:17.058Z,28.90
2018-09-30T13:30:44.664Z,29.20
2018-09-30T13:33:12.215Z,29.30
2018-09-30T13:35:40.122Z,29.40
2018-09-30T13:38:07.787Z,28.80
2018-09-30T13:40:35.367Z,27.70
2018-09-30T13:43:02.830Z,28.60
2018-09-30T13:45:30.382Z,28.20
2018-09-30T13:47:57.936Z,27.30
2018-09-30T13:50:25.379Z,27.00
2018-09-30T13:52:53.251Z,28.30
2018-09-30T13:55:20.738Z,28.60
2018-09-30T13:57:48.189Z,28.60
2018-09-30T14:00:15.707Z,28.90
2018-09-30T14:02:43.197Z,28.80
2018-09-30T14:05:10.668Z,26.30
2018-09-30T14:07:38.118Z,26.90
2018-09-30T14:10:05.618Z,27.60
2018-09-30T14:12:33.059Z,27.50
2018-09-30T14:15:00.535Z,27.80
2018-09-30T14:17:28.155Z,28.40
2018-09-30T14:19:55.977Z,28.80
2018-09-30T14:22:23.840Z,29.00
2018-09-30T14:24:51.341Z,29.00
2018-09-30T14:27:18.911Z,28.90
2018-09-30T14:29:46.365Z,30.70
2018-09-30T14:32:13.956Z,34.10
2018-09-30T14:34:41.505Z,36.70
2018-09-30T14:37:09.081Z,38.70
2018-09-30T14:39:36.549Z,40.20
2018-09-30T14:42:04.218Z,41.40
2018-09-30T14:44:31.691Z,42.00
2018-09-30T14:46:59.198Z,42.60
2018-09-30T14:49:26.677Z,42.70
2018-09-30T14:51:54.122Z,43.50
2018-09-30T14:54:21.661Z,44.30
2018-09-30T14:56:49.179Z,43.70
2018-09-30T14:59:16.644Z,44.20
2018-09-30T15:01:44.102Z,41.50
2018-09-30T15:04:11.580Z,41.50
2018-09-30T15:06:39.048Z,44.70
2018-09-30T15:09:07.938Z,45.80
2018-09-30T15:11:35.388Z,46.30
2018-09-30T15:14:02.898Z,45.20
2018-09-30T15:16:30.338Z,47.20
2018-09-30T15:18:57.778Z,47.50
2018-09-30T15:21:25.246Z,47.60
2018-09-30T15:23:52.726Z,46.70
2018-09-30T15:26:20.217Z,46.80
2018-09-30T15:28:47.679Z,47.20
2018-09-30T15:31:15.274Z,47.50
2018-09-30T15:33:42.814Z,46.70
2018-09-30T15:36:10.288Z,46.90
2018-09-30T15:38:37.778Z,46.30
2018-09-30T15:41:05.383Z,48.00
2018-09-30T15:43:32.999Z,47.70
2018-09-30T15:46:00.473Z,48.00
2018-09-30T15:48:27.977Z,48.90
2018-09-30T15:50:55.481Z,48.50
2018-09-30T15:53:23.030Z,48.60
2018-09-30T15:55:50.615Z,48.90
2018-09-30T15:58:18.089Z,48.70
2018-09-30T16:00:45.693Z,48.80
2018-09-30T16:03:13.155Z,48.50
2018-09-30T16:05:40.731Z,48.80
2018-09-30T16:08:08.195Z,49.30
2018-09-30T16:10:35.702Z,50.10
2018-09-30T16:13:03.210Z,50.10
2018-09-30T16:15:30.651Z,50.80
2018-09-30T16:17:58.137Z,50.80
2018-09-30T16:20:25.609Z,50.60
2018-09-30T16:22:53.065Z,50.40
2018-09-30T16:25:20.556Z,50.00
2018-09-30T16:27:48.147Z,50.20
2018-09-30T16:30:15.686Z,48.90
2018-09-30T16:32:43.254Z,47.70
2018-09-30T16:35:10.864Z,48.60
2018-09-30T16:37:38.422Z,48.60
2018-09-30T16:40:06.234Z,48.90
2018-09-30T16:42:33.829Z,49.80
2018-09-30T16:45:01.278Z,49.10
2018-09-30T16:47:28.883Z,47.70
2018-09-30T16:49:56.375Z,45.80
2018-09-30T16:52:23.899Z,47.60
2018-09-30T16:54:51.438Z,49.50
2018-09-30T16:57:18.982Z,48.90
2018-09-30T16:59:46.600Z,50.40
2018-09-30T17:02:14.094Z,47.70
2018-09-30T17:04:41.619Z,49.00
2018-09-30T17:07:09.180Z,48.10
2018-09-30T17:09:36.650Z,47.50
2018-09-30T17:12:04.110Z,46.80
2018-09-30T17:14:31.738Z,49.60
2018-09-30T17:16:59.265Z,49.60
2018-09-30T17:19:26.717Z,48.70
2018-09-30T17:21:54.263Z,46.90
2018-09-30T17:24:21.734Z,48.10
2018-09-30T17:26:49.221Z,51.30
2018-09-30T17:29:16.846Z,47.70
2018-09-30T17:31:44.394Z,49.20
2018-09-30T17:34:11.885Z,50.40
2018-09-30T17:36:39.515Z,49.70
2018-09-30T17:39:08.039Z,48.90
2018-09-30T17:41:35.581Z,48.30
2018-09-30T17:44:03.436Z,48.50
2018-09-30T17:46:30.823Z,48.60
2018-09-30T17:48:58.457Z,49.10
2018-09-30T17:51:25.935Z,51.80
2018-09-30T17:53:53.448Z,50.40
2018-09-30T17:56:20.958Z,50.10
2018-09-30T17:58:48.502Z,50.60
2018-09-30T18:01:15.983Z,50.70
2018-09-30T18:03:43.478Z,51.50
2018-09-30T18:06:10.966Z,50.80
2018-09-30T18:08:38.519Z,50.80
2018-09-30T18:11:06.402Z,51.50
2018-09-30T18:13:33.866Z,52.70
2018-09-30T18:16:01.379Z,51.80
2018-09-30T18:18:28.982Z,54.30
2018-09-30T18:20:56.661Z,54.40
2018-09-30T18:23:24.213Z,50.40
2018-09-30T18:25:55.327Z,50.90
2018-09-30T18:28:22.821Z,52.40
2018-09-30T18:30:51.010Z,53.80
2018-09-30T18:33:18.576Z,51.70
2018-09-30T18:35:46.227Z,51.10
2018-09-30T18:38:14.235Z,50.90
2018-09-30T18:40:45.110Z,51.20
2018-09-30T18:43:13.396Z,50.80
2018-09-30T18:45:41.417Z,53.30
2018-09-30T18:48:09.886Z,51.90
2018-09-30T18:50:37.787Z,51.30
2018-09-30T18:53:05.940Z,53.50
2018-09-30T18:55:33.815Z,54.30
2018-09-30T18:58:01.577Z,53.10
2018-09-30T19:00:30.576Z,53.60
2018-09-30T19:02:58.420Z,53.50
2018-09-30T19:05:26.380Z,54.30
2018-09-30T19:07:54.920Z,53.00
2018-09-30T19:10:22.784Z,52.50
2018-09-30T19:12:50.647Z,53.40
2018-09-30T19:15:18.410Z,54.50
2018-09-30T19:17:46.391Z,53.80
2018-09-30T19:20:14.201Z,53.90
2018-09-30T19:22:41.875Z,51.50
2018-09-30T19:25:09.502Z,52.30
2018-09-30T19:27:36.945Z,52.30
2018-09-30T19:30:04.697Z,52.40
2018-09-30T19:32:32.107Z,53.30
2018-09-30T19:34:59.973Z,53.50
2018-09-30T19:37:27.611Z,54.20
2018-09-30T19:39:55.191Z,54.30
2018-09-30T19:42:22.962Z,53.30
2018-09-30T19:44:50.562Z,54.90
2018-09-30T19:47:18.226Z,53.20
2018-09-30T19:49:45.703Z,54.50
2018-09-30T19:52:13.256Z,53.60
2018-09-30T19:54:40.884Z,55.50
2018-09-30T19:57:08.555Z,53.70
2018-09-30T19:59:36.914Z,54.90
2018-09-30T20:02:04.603Z,54.00
2018-09-30T20:04:32.193Z,53.90
2018-09-30T20:09:51.008Z,54.40
2018-09-30T20:12:18.598Z,55.00
2018-09-30T20:14:46.098Z,54.20
2018-09-30T20:17:13.596Z,54.60
2018-09-30T20:19:41.126Z,54.20
2018-09-30T20:22:10.065Z,55.70
2018-09-30T20:24:38.536Z,58.20
2018-09-30T20:27:06.168Z,56.50
2018-09-30T20:29:34.135Z,54.20
2018-09-30T20:32:01.670Z,58.10
2018-09-30T20:34:29.130Z,55.90
2018-09-30T20:36:56.660Z,55.00
2018-09-30T20:39:24.125Z,55.30
2018-09-30T20:41:51.650Z,55.50
2018-09-30T20:44:19.291Z,55.70
2018-09-30T20:46:46.782Z,55.40
2018-09-30T20:49:14.509Z,54.90
2018-09-30T20:51:42.037Z,55.30
2018-09-30T20:54:09.550Z,55.70
2018-09-30T20:56:37.057Z,55.90
2018-09-30T20:59:04.623Z,56.20
2018-09-30T21:01:32.187Z,56.20
2018-09-30T21:03:59.758Z,56.20
2018-09-30T21:06:34.350Z,59.90
2018-09-30T21:09:01.874Z,57.70
2018-09-30T21:11:29.377Z,57.70
2018-09-30T21:13:57.158Z,56.50
2018-09-30T21:16:24.749Z,57.30
2018-09-30T21:18:52.276Z,57.20
2018-09-30T21:21:19.741Z,57.90
2018-09-30T21:23:47.201Z,59.30
2018-09-30T21:26:14.666Z,56.90
2018-09-30T21:28:42.114Z,57.10
2018-09-30T21:31:09.610Z,56.80
2018-09-30T21:33:37.104Z,57.00
2018-09-30T21:36:04.610Z,57.20
2018-09-30T21:38:32.072Z,58.90
2018-09-30T21:40:59.614Z,58.30
2018-09-30T21:43:27.130Z,57.90
2018-09-30T21:45:54.643Z,57.30
2018-09-30T21:48:22.127Z,57.60
2018-09-30T21:50:49.593Z,58.90
2018-09-30T21:53:17.426Z,59.80
2018-09-30T21:55:44.949Z,61.00
2018-09-30T21:58:12.474Z,57.40
2018-09-30T22:00:43.177Z,57.20
2018-09-30T22:03:11.658Z,58.90
2018-09-30T22:05:39.186Z,57.40
2018-09-30T22:08:08.090Z,57.00
2018-09-30T22:10:36.046Z,57.10
2018-09-30T22:13:03.552Z,55.60
2018-09-30T22:15:31.170Z,56.30
2018-09-30T22:17:58.647Z,60.60
2018-09-30T22:20:26.207Z,57.50
2018-09-30T22:22:53.665Z,58.90
2018-09-30T22:25:21.163Z,57.50
2018-09-30T22:27:48.651Z,58.60
2018-09-30T22:30:16.097Z,61.70
2018-09-30T22:32:43.579Z,60.80
2018-09-30T22:35:11.063Z,58.20
2018-09-30T22:37:38.535Z,61.30
2018-09-30T22:40:06.462Z,58.40
2018-09-30T22:42:33.957Z,59.40
2018-09-30T22:45:01.433Z,59.30
2018-09-30T22:47:28.877Z,59.30
2018-09-30T22:49:57.584Z,58.40
2018-09-30T22:52:25.477Z,61.40
2018-09-30T22:54:53.306Z,64.80
2018-09-30T22:57:21.203Z,59.90
2018-09-30T22:59:49.148Z,57.40
2018-09-30T23:02:16.615Z,57.70
2018-09-30T23:04:44.483Z,59.00
2018-09-30T23:07:12.725Z,58.80
2018-09-30T23:09:41.700Z,61.00
2018-09-30T23:12:10.322Z,58.70
2018-09-30T23:14:38.269Z,58.40
2018-09-30T23:17:06.806Z,58.00
2018-09-30T23:19:35.325Z,58.90
2018-09-30T23:22:03.309Z,59.20
2018-09-30T23:24:31.079Z,62.10
2018-09-30T23:26:58.910Z,60.20
2018-09-30T23:29:26.965Z,63.10
2018-09-30T23:31:54.796Z,57.60
2018-09-30T23:34:23.679Z,58.60
2018-09-30T23:36:51.190Z,57.40
2018-09-30T23:39:18.742Z,57.40
2018-09-30T23:41:46.230Z,58.10
2018-09-30T23:44:13.801Z,61.50
2018-09-30T23:46:41.249Z,59.80
2018-09-30T23:49:08.734Z,62.80
2018-09-30T23:51:36.366Z,62.20
2018-09-30T23:54:04.079Z,59.60
2018-09-30T23:56:31.606Z,58.50
2018-09-30T23:58:59.127Z,55.80
